sensor_id;sensor_type;location;lat;lon;timestamp;pressure;altitude;pressure_sealevel;temperature;humidity
52393;BME280;38320;39.764;2.710;2023-10-09T07:24:12;102047.28;;;24.49;53.70
52393;BME280;38320;39.764;2.710;2023-10-09T07:26:46;102030.09;;;24.41;53.82
52393;BME280;38320;39.764;2.710;2023-10-09T07:29:20;102044.06;;;24.54;53.78
52393;BME280;38320;39.764;2.710;2023-10-09T07:31:49;102048.13;;;24.58;54.01
52393;BME280;38320;39.764;2.710;2023-10-09T07:34:23;102055.94;;;24.61;53.85
52393;BME280;38320;39.764;2.710;2023-10-09T07:37:17;102042.88;;;24.65;54.10
52393;BME280;38320;39.764;2.710;2023-10-09T07:39:44;102052.59;;;24.68;54.16
52393;BME280;38320;39.764;2.710;2023-10-09T07:42:15;102045.25;;;24.68;54.34
52393;BME280;38320;39.764;2.710;2023-10-09T07:44:44;102046.81;;;24.71;54.36
52393;BME280;38320;39.764;2.710;2023-10-09T07:47:18;102045.63;;;24.73;54.27
52393;BME280;38320;39.764;2.710;2023-10-09T07:50:11;102044.63;;;24.74;54.38
52393;BME280;38320;39.764;2.710;2023-10-09T07:52:36;102056.19;;;24.76;54.13
52393;BME280;38320;39.764;2.710;2023-10-09T07:55:09;102046.31;;;24.75;54.18
52393;BME280;38320;39.764;2.710;2023-10-09T07:57:51;102043.75;;;24.74;53.88
52393;BME280;38320;39.764;2.710;2023-10-09T08:00:17;102054.84;;;24.80;53.85
52393;BME280;38320;39.764;2.710;2023-10-09T08:03:01;102057.41;;;24.82;53.77
52393;BME280;38320;39.764;2.710;2023-10-09T08:05:28;102054.50;;;24.84;53.64
52393;BME280;38320;39.764;2.710;2023-10-09T08:08:00;102058.75;;;24.86;53.85
52393;BME280;38320;39.764;2.710;2023-10-09T08:11:01;102058.59;;;24.88;53.45
52393;BME280;38320;39.764;2.710;2023-10-09T08:14:06;102062.00;;;24.90;53.69
52393;BME280;38320;39.764;2.710;2023-10-09T08:17:06;102056.56;;;24.90;53.54
52393;BME280;38320;39.764;2.710;2023-10-09T08:19:46;102068.13;;;24.92;53.56
52393;BME280;38320;39.764;2.710;2023-10-09T08:22:25;102063.84;;;24.89;53.57
52393;BME280;38320;39.764;2.710;2023-10-09T08:24:51;102068.63;;;24.96;53.65
52393;BME280;38320;39.764;2.710;2023-10-09T08:30:04;102056.06;;;24.94;53.64
52393;BME280;38320;39.764;2.710;2023-10-09T08:32:43;102068.97;;;25.01;53.61
52393;BME280;38320;39.764;2.710;2023-10-09T08:35:36;102067.94;;;25.02;53.29
52393;BME280;38320;39.764;2.710;2023-10-09T08:38:16;102062.50;;;25.02;53.55
52393;BME280;38320;39.764;2.710;2023-10-09T08:40:49;102052.84;;;24.99;53.41
52393;BME280;38320;39.764;2.710;2023-10-09T08:43:20;102062.19;;;25.05;53.36
52393;BME280;38320;39.764;2.710;2023-10-09T08:45:54;102069.16;;;25.07;53.21
52393;BME280;38320;39.764;2.710;2023-10-09T08:48:20;102056.91;;;25.03;53.34
52393;BME280;38320;39.764;2.710;2023-10-09T08:50:52;102067.28;;;25.08;53.52
52393;BME280;38320;39.764;2.710;2023-10-09T08:53:22;102056.56;;;25.06;53.29
52393;BME280;38320;39.764;2.710;2023-10-09T08:55:49;102061.50;;;25.11;53.29
52393;BME280;38320;39.764;2.710;2023-10-09T08:58:17;102062.19;;;25.13;53.27
52393;BME280;38320;39.764;2.710;2023-10-09T09:01:02;102063.88;;;25.14;53.27
52393;BME280;38320;39.764;2.710;2023-10-09T09:03:37;102063.88;;;25.14;53.54
52393;BME280;38320;39.764;2.710;2023-10-09T09:06:04;102070.00;;;25.16;53.22
52393;BME280;38320;39.764;2.710;2023-10-09T09:08:31;102061.16;;;25.14;53.49
52393;BME280;38320;39.764;2.710;2023-10-09T09:11:01;102068.47;;;25.22;53.35
52393;BME280;38320;39.764;2.710;2023-10-09T09:16:29;102065.59;;;25.24;53.33
52393;BME280;38320;39.764;2.710;2023-10-09T09:18:59;102064.72;;;25.23;53.18
52393;BME280;38320;39.764;2.710;2023-10-09T09:21:37;102070.00;;;25.25;53.36
52393;BME280;38320;39.764;2.710;2023-10-09T09:24:08;102065.25;;;25.27;53.62
52393;BME280;38320;39.764;2.710;2023-10-09T09:26:49;102068.84;;;25.27;53.55
52393;BME280;38320;39.764;2.710;2023-10-09T09:29:38;102059.28;;;25.23;53.67
52393;BME280;38320;39.764;2.710;2023-10-09T09:32:05;102064.41;;;25.26;53.68
52393;BME280;38320;39.764;2.710;2023-10-09T09:34:45;102066.63;;;25.22;53.73
52393;BME280;38320;39.764;2.710;2023-10-09T09:37:22;102060.31;;;25.22;53.79
52393;BME280;38320;39.764;2.710;2023-10-09T09:39:59;102060.31;;;25.22;53.94
52393;BME280;38320;39.764;2.710;2023-10-09T09:42:51;102056.25;;;25.18;55.31
52393;BME280;38320;39.764;2.710;2023-10-09T09:45:17;102060.13;;;25.15;54.46
52393;BME280;38320;39.764;2.710;2023-10-09T09:47:49;102049.09;;;25.17;54.07
52393;BME280;38320;39.764;2.710;2023-10-09T09:50:19;102052.31;;;25.12;54.55
52393;BME280;38320;39.764;2.710;2023-10-09T09:52:51;102055.38;;;25.01;54.76
52393;BME280;38320;39.764;2.710;2023-10-09T09:55:20;102049.78;;;25.02;54.89
52393;BME280;38320;39.764;2.710;2023-10-09T09:57:54;102056.41;;;25.00;55.20
52393;BME280;38320;39.764;2.710;2023-10-09T10:00:25;102058.09;;;25.01;55.08
52393;BME280;38320;39.764;2.710;2023-10-09T10:03:34;102055.03;;;24.96;55.72
52393;BME280;38320;39.764;2.710;2023-10-09T10:06:04;102052.66;;;24.92;55.78
52393;BME280;38320;39.764;2.710;2023-10-09T10:08:35;102051.94;;;24.90;55.96
52393;BME280;38320;39.764;2.710;2023-10-09T10:11:05;102040.75;;;24.85;56.20
52393;BME280;38320;39.764;2.710;2023-10-09T10:16:12;102045.31;;;24.76;56.73
52393;BME280;38320;39.764;2.710;2023-10-09T10:19:09;102036.97;;;24.70;57.09
52393;BME280;38320;39.764;2.710;2023-10-09T10:21:43;102048.16;;;24.66;57.24
52393;BME280;38320;39.764;2.710;2023-10-09T10:27:20;102040.31;;;24.63;57.77
52393;BME280;38320;39.764;2.710;2023-10-09T10:32:55;102034.41;;;24.60;57.96
52393;BME280;38320;39.764;2.710;2023-10-09T10:35:23;102047.13;;;24.59;57.79
52393;BME280;38320;39.764;2.710;2023-10-09T10:38:01;102027.91;;;24.52;58.05
52393;BME280;38320;39.764;2.710;2023-10-09T10:40:33;102032.69;;;24.59;57.84
52393;BME280;38320;39.764;2.710;2023-10-09T10:43:17;102032.16;;;24.55;58.12
52393;BME280;38320;39.764;2.710;2023-10-09T10:48:34;102025.72;;;24.56;57.58
52393;BME280;38320;39.764;2.710;2023-10-09T10:51:06;102021.97;;;24.57;57.65
52393;BME280;38320;39.764;2.710;2023-10-09T10:53:32;102022.66;;;24.59;57.84
52393;BME280;38320;39.764;2.710;2023-10-09T10:56:13;102024.34;;;24.60;57.39
52393;BME280;38320;39.764;2.710;2023-10-09T10:58:39;102018.25;;;24.58;57.50
52393;BME280;38320;39.764;2.710;2023-10-09T11:01:19;102021.31;;;24.63;57.59
52393;BME280;38320;39.764;2.710;2023-10-09T11:03:48;102027.75;;;24.62;57.53
52393;BME280;38320;39.764;2.710;2023-10-09T11:06:30;102022.31;;;24.62;57.34
52393;BME280;38320;39.764;2.710;2023-10-09T11:09:08;102018.09;;;24.60;57.26
52393;BME280;38320;39.764;2.710;2023-10-09T11:11:47;102002.09;;;24.57;57.28
52393;BME280;38320;39.764;2.710;2023-10-09T11:14:13;102013.84;;;24.65;57.33
52393;BME280;38320;39.764;2.710;2023-10-09T11:16:59;101992.75;;;24.59;57.71
52393;BME280;38320;39.764;2.710;2023-10-09T11:19:28;101995.84;;;24.64;57.54
52393;BME280;38320;39.764;2.710;2023-10-09T11:21:57;102001.44;;;24.63;57.55
52393;BME280;38320;39.764;2.710;2023-10-09T11:24:33;101996.84;;;24.63;57.35
52393;BME280;38320;39.764;2.710;2023-10-09T11:27:04;101991.41;;;24.63;57.74
52393;BME280;38320;39.764;2.710;2023-10-09T11:29:33;101989.72;;;24.54;58.06
52393;BME280;38320;39.764;2.710;2023-10-09T11:32:09;101989.41;;;24.65;57.92
52393;BME280;38320;39.764;2.710;2023-10-09T11:34:48;101981.91;;;24.59;57.93
52393;BME280;38320;39.764;2.710;2023-10-09T11:37:18;101989.41;;;24.65;58.07
52393;BME280;38320;39.764;2.710;2023-10-09T11:40:04;101978.53;;;24.65;58.06
52393;BME280;38320;39.764;2.710;2023-10-09T11:42:49;101968.31;;;24.59;57.99
52393;BME280;38320;39.764;2.710;2023-10-09T11:45:25;101956.75;;;24.57;58.07
52393;BME280;38320;39.764;2.710;2023-10-09T11:47:56;101968.66;;;24.64;58.19
52393;BME280;38320;39.764;2.710;2023-10-09T11:50:44;101952.88;;;24.60;58.39
52393;BME280;38320;39.764;2.710;2023-10-09T11:53:43;101941.81;;;24.61;58.39
52393;BME280;38320;39.764;2.710;2023-10-09T11:56:10;101967.81;;;24.72;58.41
52393;BME280;38320;39.764;2.710;2023-10-09T11:58:39;101949.97;;;24.70;58.44
52393;BME280;38320;39.764;2.710;2023-10-09T12:01:14;101954.22;;;24.72;58.33
52393;BME280;38320;39.764;2.710;2023-10-09T12:03:46;101937.75;;;24.65;58.48
52393;BME280;38320;39.764;2.710;2023-10-09T12:06:16;101943.00;;;24.75;58.27
52393;BME280;38320;39.764;2.710;2023-10-09T12:08:44;101950.50;;;24.73;58.35
52393;BME280;38320;39.764;2.710;2023-10-09T12:11:13;101936.88;;;24.65;58.40
52393;BME280;38320;39.764;2.710;2023-10-09T12:13:48;101935.72;;;24.68;58.25
52393;BME280;38320;39.764;2.710;2023-10-09T12:16:13;101936.53;;;24.68;58.83
52393;BME280;38320;39.764;2.710;2023-10-09T12:18:41;101920.06;;;24.61;58.72
52393;BME280;38320;39.764;2.710;2023-10-09T12:21:07;101931.28;;;24.75;58.46
52393;BME280;38320;39.764;2.710;2023-10-09T12:23:32;101937.94;;;24.80;58.30
52393;BME280;38320;39.764;2.710;2023-10-09T12:26:04;101922.50;;;24.81;57.95
52393;BME280;38320;39.764;2.710;2023-10-09T12:28:30;101938.47;;;24.92;57.83
52393;BME280;38320;39.764;2.710;2023-10-09T12:30:59;101924.00;;;24.92;57.92
52393;BME280;38320;39.764;2.710;2023-10-09T12:33:27;101936.59;;;25.01;57.63
52393;BME280;38320;39.764;2.710;2023-10-09T12:35:54;101925.53;;;24.94;57.51
52393;BME280;38320;39.764;2.710;2023-10-09T12:38:27;101937.94;;;25.05;57.36
52393;BME280;38320;39.764;2.710;2023-10-09T12:41:03;101940.97;;;25.11;57.46
